Time;durP1;ratioP1;P1;durP2;ratioP2;P2;SDS_P1;SDS_P2;PMS_P1;PMS_P2;Temp;Humidity;BMP_temperature;BMP_pressure;BME280_temperature;BME280_humidity;BME280_pressure;Samples;Min_cycle;Max_cycle;Signal;HPM_P1;HPM_P2
2021/08/15 00:01:08;;;;;;;3.50;1.83;;;18.00;99.90;;;;;;5014633;28;20176;-73
2021/08/15 00:03:34;;;;;;;1.63;1.27;;;18.00;99.90;;;;;;5013180;28;20274;-72
2021/08/15 00:05:59;;;;;;;3.60;1.47;;;17.90;99.90;;;;;;5026443;28;20976;-74
2021/08/15 00:08:25;;;;;;;1.50;1.27;;;17.80;99.90;;;;;;5018951;28;20246;-71
2021/08/15 00:10:51;;;;;;;1.67;1.20;;;17.80;99.90;;;;;;5022139;28;20199;-71
2021/08/15 00:13:16;;;;;;;3.03;1.17;;;17.70;99.90;;;;;;5018907;28;20342;-73
2021/08/15 00:15:42;;;;;;;0.80;0.73;;;17.70;99.90;;;;;;5014026;28;20196;-70
2021/08/15 00:18:07;;;;;;;2.50;1.33;;;17.70;99.90;;;;;;5021690;28;20254;-72
2021/08/15 00:20:33;;;;;;;3.57;2.50;;;17.70;99.90;;;;;;5016686;28;20180;-72
2021/08/15 00:22:59;;;;;;;2.40;1.37;;;17.60;99.90;;;;;;5015279;28;20718;-73
2021/08/15 00:25:25;;;;;;;2.10;1.80;;;17.60;99.90;;;;;;5032666;28;20172;-75
2021/08/15 00:27:50;;;;;;;2.77;1.33;;;17.60;99.90;;;;;;5012680;28;20180;-71
2021/08/15 00:30:17;;;;;;;1.73;1.33;;;17.60;99.90;;;;;;5017825;28;20446;-72
2021/08/15 00:32:45;;;;;;;1.87;1.40;;;17.50;99.90;;;;;;5023951;28;20214;-75
2021/08/15 00:35:11;;;;;;;2.40;2.00;;;17.50;99.90;;;;;;5017860;28;20928;-75
2021/08/15 00:37:36;;;;;;;3.33;1.67;;;17.50;99.90;;;;;;5005484;28;20954;-74
2021/08/15 00:40:03;;;;;;;1.00;0.87;;;17.50;99.90;;;;;;5020001;28;20431;-73
2021/08/15 00:42:29;;;;;;;1.10;0.83;;;17.50;99.90;;;;;;5017857;28;20187;-75
2021/08/15 00:44:55;;;;;;;3.07;0.77;;;17.50;99.90;;;;;;5029615;28;20437;-74
2021/08/15 00:47:20;;;;;;;2.23;1.27;;;17.40;99.90;;;;;;5033753;28;20200;-70
2021/08/15 00:49:46;;;;;;;1.73;1.63;;;17.40;99.90;;;;;;5015125;28;20476;-72
2021/08/15 00:52:11;;;;;;;1.00;0.70;;;17.40;99.90;;;;;;5023017;28;20230;-75
2021/08/15 00:54:37;;;;;;;2.40;2.20;;;17.40;99.90;;;;;;5030370;28;20186;-72
2021/08/15 00:57:04;;;;;;;0.97;0.83;;;17.40;99.90;;;;;;5022065;28;20204;-74
2021/08/15 00:59:30;;;;;;;3.60;1.47;;;17.40;99.90;;;;;;5012442;28;20263;-74
2021/08/15 01:01:56;;;;;;;2.93;1.63;;;17.40;99.90;;;;;;5002976;28;20521;-72
2021/08/15 01:04:24;;;;;;;1.87;1.77;;;17.30;99.90;;;;;;5015185;28;20687;-72
2021/08/15 01:06:50;;;;;;;8.03;2.97;;;17.30;99.90;;;;;;5027049;28;20470;-73
2021/08/15 01:09:15;;;;;;;3.80;2.30;;;17.30;99.90;;;;;;5024767;28;20439;-73
2021/08/15 01:11:41;;;;;;;0.97;0.87;;;17.20;99.90;;;;;;5030709;28;20433;-74
2021/08/15 01:14:08;;;;;;;3.57;3.27;;;17.20;99.90;;;;;;5018751;28;20240;-75
2021/08/15 01:16:38;;;;;;;1.27;1.17;;;17.20;99.90;;;;;;5018657;28;20353;-73
2021/08/15 01:19:04;;;;;;;1.20;1.10;;;17.10;99.90;;;;;;5023436;28;20423;-73
2021/08/15 01:21:29;;;;;;;1.40;1.03;;;17.10;99.90;;;;;;5020874;28;20477;-72
2021/08/15 01:23:55;;;;;;;3.03;1.27;;;17.10;99.90;;;;;;5014253;28;20269;-72
2021/08/15 01:26:21;;;;;;;3.97;1.93;;;17.10;99.90;;;;;;5026046;28;20665;-72
2021/08/15 01:28:49;;;;;;;5.53;3.20;;;17.10;99.90;;;;;;5016144;28;20178;-72
2021/08/15 01:31:15;;;;;;;0.90;0.80;;;17.20;99.90;;;;;;5004151;28;20430;-71
2021/08/15 01:33:41;;;;;;;1.23;0.73;;;17.10;99.90;;;;;;5012039;28;20831;-73
2021/08/15 01:36:08;;;;;;;0.90;0.90;;;17.10;99.90;;;;;;5013892;28;20998;-72
2021/08/15 01:38:36;;;;;;;1.47;1.37;;;17.10;99.90;;;;;;5027575;28;20436;-72
2021/08/15 01:41:03;;;;;;;1.80;1.70;;;17.10;99.90;;;;;;5012411;28;20423;-72
2021/08/15 01:43:29;;;;;;;21.63;1.53;;;17.10;99.90;;;;;;5000717;28;20924;-73
2021/08/15 01:45:54;;;;;;;1.37;1.13;;;17.10;99.90;;;;;;5024366;28;20529;-74
2021/08/15 01:48:20;;;;;;;0.80;0.70;;;17.00;99.90;;;;;;5024695;28;20263;-73
2021/08/15 01:50:48;;;;;;;2.50;2.40;;;17.10;99.90;;;;;;5012726;28;20552;-74
2021/08/15 01:53:16;;;;;;;3.17;1.20;;;17.10;99.90;;;;;;5012352;28;20538;-72
2021/08/15 01:55:43;;;;;;;1.60;1.40;;;17.10;99.90;;;;;;5003855;28;20988;-73
2021/08/15 01:58:10;;;;;;;10.03;1.23;;;17.00;99.90;;;;;;5028378;28;20465;-74
2021/08/15 02:00:40;;;;;;;2.60;0.90;;;16.90;99.90;;;;;;5029412;28;20505;-74
2021/08/15 02:03:06;;;;;;;0.80;0.60;;;17.00;99.90;;;;;;5036459;28;20830;-74
2021/08/15 02:05:32;;;;;;;1.57;1.47;;;17.00;99.90;;;;;;5019936;28;20427;-74
2021/08/15 02:07:58;;;;;;;1.20;1.10;;;17.00;99.90;;;;;;5033786;28;20434;-74
2021/08/15 02:10:28;;;;;;;2.50;2.30;;;17.00;99.90;;;;;;5024186;28;20184;-73
2021/08/15 02:12:55;;;;;;;1.23;1.13;;;16.90;99.90;;;;;;5017356;28;20215;-74
2021/08/15 02:15:21;;;;;;;2.30;2.10;;;16.80;99.90;;;;;;4999167;28;20805;-75
2021/08/15 02:17:47;;;;;;;1.13;1.03;;;16.80;99.90;;;;;;5023122;28;20429;-74
2021/08/15 02:20:15;;;;;;;2.13;2.03;;;16.80;99.90;;;;;;5012074;28;20552;-74
2021/08/15 02:22:41;;;;;;;2.17;1.20;;;16.80;99.90;;;;;;5016334;28;20275;-74
2021/08/15 02:25:09;;;;;;;0.70;0.50;;;16.70;99.90;;;;;;5003886;28;20510;-75
2021/08/15 02:27:35;;;;;;;0.70;0.60;;;16.70;99.90;;;;;;5015836;28;20307;-71
2021/08/15 02:30:01;;;;;;;1.37;1.27;;;16.80;99.90;;;;;;5019831;28;20430;-75
2021/08/15 02:32:26;;;;;;;0.70;0.60;;;16.80;99.90;;;;;;5020732;28;20459;-75
2021/08/15 02:34:52;;;;;;;2.13;1.70;;;16.80;99.90;;;;;;5024388;28;20184;-72
2021/08/15 02:37:18;;;;;;;1.17;1.07;;;16.80;99.90;;;;;;5019135;28;20231;-75
2021/08/15 02:39:44;;;;;;;0.70;0.50;;;16.80;99.90;;;;;;5031460;28;20179;-74
2021/08/15 02:42:09;;;;;;;0.80;0.70;;;16.80;99.90;;;;;;5004066;28;20426;-75
2021/08/15 02:44:35;;;;;;;1.80;0.97;;;16.80;99.90;;;;;;5031027;28;20637;-72
2021/08/15 02:47:00;;;;;;;1.10;1.00;;;16.80;99.90;;;;;;4998302;28;20199;-75
2021/08/15 02:49:26;;;;;;;1.03;0.93;;;16.80;99.90;;;;;;4999402;28;20239;-75
2021/08/15 02:51:51;;;;;;;1.47;1.37;;;16.80;99.90;;;;;;5005400;28;20218;-75
2021/08/15 02:54:17;;;;;;;2.80;2.57;;;16.80;99.90;;;;;;5023946;28;20189;-74
2021/08/15 02:56:42;;;;;;;0.70;0.60;;;16.80;99.90;;;;;;5016252;28;20204;-72
2021/08/15 02:59:10;;;;;;;0.90;0.60;;;16.80;99.90;;;;;;5011832;28;20180;-75
2021/08/15 03:01:35;;;;;;;0.70;0.50;;;16.80;99.90;;;;;;5012355;28;20183;-72
2021/08/15 03:04:01;;;;;;;3.27;1.63;;;16.80;99.90;;;;;;5014296;28;20955;-74
2021/08/15 03:06:26;;;;;;;1.03;0.93;;;16.80;99.90;;;;;;5016915;28;20215;-75
2021/08/15 03:08:52;;;;;;;0.70;0.60;;;16.80;99.90;;;;;;4998906;28;20184;-75
2021/08/15 03:11:17;;;;;;;1.40;1.30;;;16.80;99.90;;;;;;5017072;28;20203;-75
2021/08/15 03:13:44;;;;;;;1.47;1.37;;;16.80;99.90;;;;;;5018371;28;20207;-73
2021/08/15 03:16:10;;;;;;;1.30;1.20;;;16.80;99.90;;;;;;5015476;28;20220;-74
2021/08/15 03:18:35;;;;;;;0.80;0.77;;;16.70;99.90;;;;;;5018426;28;20457;-74
2021/08/15 03:21:01;;;;;;;0.80;0.77;;;16.70;99.90;;;;;;4999609;28;20223;-75
2021/08/15 03:23:26;;;;;;;1.63;1.37;;;16.70;99.90;;;;;;5013351;28;20246;-75
2021/08/15 03:25:52;;;;;;;3.20;3.00;;;16.70;99.90;;;;;;5023937;28;20204;-74
2021/08/15 03:28:17;;;;;;;2.53;2.33;;;16.70;99.90;;;;;;5033067;28;20203;-74
2021/08/15 03:30:43;;;;;;;0.70;0.60;;;16.70;99.90;;;;;;5021881;28;20184;-75
2021/08/15 03:33:08;;;;;;;3.53;1.90;;;16.60;99.90;;;;;;5028650;28;20195;-75
2021/08/15 03:35:34;;;;;;;2.47;2.30;;;16.60;99.90;;;;;;5033776;28;20656;-74
2021/08/15 03:37:59;;;;;;;3.63;2.20;;;16.60;99.90;;;;;;5028164;28;20187;-73
2021/08/15 03:40:25;;;;;;;1.20;0.80;;;16.60;99.90;;;;;;5035829;28;20670;-75
2021/08/15 03:42:50;;;;;;;1.83;0.60;;;16.50;99.90;;;;;;5037445;28;20271;-74
2021/08/15 03:45:16;;;;;;;1.20;1.10;;;16.60;99.90;;;;;;5037003;28;20183;-74
2021/08/15 03:47:41;;;;;;;0.70;0.57;;;16.60;99.90;;;;;;5031513;28;20208;-74
2021/08/15 03:50:07;;;;;;;1.03;0.93;;;16.60;99.90;;;;;;5040121;28;20176;-75
2021/08/15 03:52:41;;;;;;;1.60;1.07;;;16.50;99.90;;;;;;5039260;28;20723;-74
2021/08/15 03:55:10;;;;;;;3.03;1.40;;;16.50;99.90;;;;;;5036499;28;20491;-74
2021/08/15 03:57:37;;;;;;;4.33;1.53;;;16.50;99.90;;;;;;5023065;28;20458;-73
2021/08/15 04:00:04;;;;;;;1.63;0.97;;;16.50;99.90;;;;;;5028713;28;20441;-73
2021/08/15 04:02:30;;;;;;;1.63;1.53;;;16.40;99.90;;;;;;5031186;28;20438;-75
2021/08/15 04:04:55;;;;;;;2.77;1.00;;;16.40;99.90;;;;;;5040280;28;20426;-74
2021/08/15 04:07:21;;;;;;;3.80;1.03;;;16.40;99.90;;;;;;5038144;28;20238;-74
2021/08/15 04:09:46;;;;;;;1.70;1.13;;;16.40;99.90;;;;;;5026834;28;20211;-73
2021/08/15 04:12:12;;;;;;;4.00;0.80;;;16.30;99.90;;;;;;5021052;28;20212;-74
2021/08/15 04:14:37;;;;;;;1.47;1.37;;;16.30;99.90;;;;;;5023872;28;20184;-74
2021/08/15 04:17:03;;;;;;;0.80;0.80;;;16.30;99.90;;;;;;5021882;28;20211;-75
2021/08/15 04:19:28;;;;;;;0.80;0.60;;;16.30;99.90;;;;;;5022468;28;20186;-72
2021/08/15 04:21:55;;;;;;;1.67;1.10;;;16.30;99.90;;;;;;5042235;28;20622;-75
2021/08/15 04:24:20;;;;;;;0.70;0.60;;;16.30;99.90;;;;;;5036406;28;20473;-72
2021/08/15 04:26:46;;;;;;;0.83;0.73;;;16.30;99.90;;;;;;5024810;28;20187;-74
2021/08/15 04:29:13;;;;;;;0.80;0.67;;;16.30;99.90;;;;;;5028650;28;20184;-73
2021/08/15 04:31:40;;;;;;;1.20;0.60;;;16.30;99.90;;;;;;5024938;28;20187;-73
2021/08/15 04:34:06;;;;;;;1.27;1.17;;;16.30;99.90;;;;;;5041911;28;20484;-74
2021/08/15 04:36:31;;;;;;;0.90;0.70;;;16.30;99.90;;;;;;5007294;28;20513;-73
2021/08/15 04:38:57;;;;;;;0.80;0.70;;;16.30;99.90;;;;;;5023434;28;20419;-72
2021/08/15 04:41:22;;;;;;;4.20;2.60;;;16.30;99.90;;;;;;5027929;28;20188;-74
2021/08/15 04:43:48;;;;;;;1.23;1.00;;;16.20;99.90;;;;;;5037667;28;20191;-74
2021/08/15 04:46:13;;;;;;;0.80;0.70;;;16.20;99.90;;;;;;5039761;28;20222;-72
2021/08/15 04:48:39;;;;;;;0.80;0.80;;;16.20;99.90;;;;;;5018635;28;20191;-74
2021/08/15 04:51:04;;;;;;;0.90;0.73;;;16.30;99.90;;;;;;5037623;28;20184;-74
2021/08/15 04:53:30;;;;;;;0.97;0.87;;;16.30;99.90;;;;;;5029544;28;20208;-75
2021/08/15 04:55:56;;;;;;;2.83;1.53;;;16.30;99.90;;;;;;5032567;28;20196;-73
2021/08/15 04:58:21;;;;;;;1.07;0.93;;;16.40;99.90;;;;;;5038284;28;20198;-75
2021/08/15 05:00:47;;;;;;;1.47;0.83;;;16.40;99.90;;;;;;5031420;28;20203;-74
2021/08/15 05:03:17;;;;;;;0.83;0.83;;;16.40;99.90;;;;;;5036081;28;20190;-75
2021/08/15 05:05:43;;;;;;;0.73;0.60;;;16.50;99.90;;;;;;5035624;28;20454;-74
2021/08/15 05:08:10;;;;;;;9.93;0.97;;;16.60;99.90;;;;;;5022139;28;20414;-74
2021/08/15 05:10:36;;;;;;;1.60;1.50;;;16.60;99.90;;;;;;5027660;28;20438;-74
2021/08/15 05:13:02;;;;;;;3.00;2.33;;;16.60;99.90;;;;;;5030275;28;20465;-72
2021/08/15 05:15:28;;;;;;;0.80;0.70;;;16.70;99.90;;;;;;5032620;28;20434;-75
2021/08/15 05:17:53;;;;;;;1.00;0.70;;;16.70;99.90;;;;;;5029458;28;20438;-75
2021/08/15 05:20:19;;;;;;;1.13;1.03;;;16.70;99.90;;;;;;5029232;28;20196;-75
2021/08/15 05:22:44;;;;;;;1.90;0.87;;;16.70;99.90;;;;;;5025281;28;20192;-73
2021/08/15 05:25:10;;;;;;;1.43;0.87;;;16.80;99.90;;;;;;5025861;28;20176;-75
2021/08/15 05:27:36;;;;;;;1.57;1.07;;;16.90;99.90;;;;;;5025874;28;20207;-75
2021/08/15 05:30:02;;;;;;;1.50;0.80;;;17.00;99.90;;;;;;5011494;28;20179;-74
2021/08/15 05:32:28;;;;;;;2.00;1.47;;;17.00;99.90;;;;;;5035235;28;20203;-74
2021/08/15 05:34:54;;;;;;;0.80;0.77;;;17.00;99.90;;;;;;5036582;28;20437;-74
2021/08/15 05:37:19;;;;;;;2.87;0.80;;;17.10;99.90;;;;;;5029678;28;20196;-75
2021/08/15 05:39:45;;;;;;;1.30;1.20;;;17.10;99.90;;;;;;5042728;28;20183;-73
2021/08/15 05:42:10;;;;;;;1.33;1.23;;;17.20;99.90;;;;;;5022013;28;20294;-74
2021/08/15 05:44:36;;;;;;;0.93;0.83;;;17.30;99.90;;;;;;5043072;28;20211;-75
2021/08/15 05:47:04;;;;;;;0.73;0.57;;;17.50;99.90;;;;;;5022913;28;20208;-75
2021/08/15 05:49:31;;;;;;;2.20;2.00;;;17.60;99.90;;;;;;5021925;28;20187;-73
2021/08/15 05:51:57;;;;;;;1.67;0.80;;;17.70;99.90;;;;;;5007456;28;20441;-72
2021/08/15 05:54:22;;;;;;;0.80;0.60;;;17.80;99.90;;;;;;5036184;28;20434;-75
2021/08/15 05:56:48;;;;;;;0.80;0.67;;;18.00;99.90;;;;;;5033986;28;20203;-75
2021/08/15 05:59:13;;;;;;;2.80;1.30;;;18.10;99.90;;;;;;5040915;28;20175;-75
2021/08/15 06:01:39;;;;;;;0.90;0.90;;;18.20;99.90;;;;;;5027323;28;20271;-75
2021/08/15 06:04:04;;;;;;;0.80;0.60;;;18.30;99.90;;;;;;5030406;28;20694;-76
2021/08/15 06:06:30;;;;;;;7.57;1.10;;;18.50;99.90;;;;;;5038987;28;20203;-75
2021/08/15 06:08:56;;;;;;;1.70;1.43;;;18.50;99.90;;;;;;5021816;28;20262;-75
2021/08/15 06:11:21;;;;;;;1.03;0.80;;;18.80;99.90;;;;;;5023976;28;20271;-74
2021/08/15 06:13:48;;;;;;;2.07;0.90;;;19.00;99.90;;;;;;5039310;28;20231;-75
2021/08/15 06:16:14;;;;;;;0.87;0.70;;;19.30;99.90;;;;;;5027164;28;20184;-72
2021/08/15 06:18:39;;;;;;;0.70;0.50;;;19.70;99.90;;;;;;5029780;28;20434;-73
2021/08/15 06:21:05;;;;;;;1.10;0.90;;;20.00;99.90;;;;;;5034840;28;20187;-75
2021/08/15 06:23:31;;;;;;;1.27;0.60;;;20.00;99.90;;;;;;5036553;28;20252;-76
2021/08/15 06:25:57;;;;;;;1.10;0.90;;;20.20;99.90;;;;;;5028642;28;20208;-75
2021/08/15 06:28:23;;;;;;;1.30;1.20;;;20.60;99.90;;;;;;5034262;28;20191;-75
2021/08/15 06:30:48;;;;;;;1.00;0.83;;;20.90;99.90;;;;;;5003159;28;20427;-73
2021/08/15 06:33:14;;;;;;;1.10;0.80;;;21.10;99.90;;;;;;5020395;28;20221;-73
2021/08/15 06:35:39;;;;;;;1.10;1.00;;;21.10;99.90;;;;;;5037051;28;20514;-75
2021/08/15 06:38:05;;;;;;;1.90;1.70;;;21.10;99.90;;;;;;5027590;28;20172;-76
2021/08/15 06:40:30;;;;;;;1.50;1.00;;;21.30;99.90;;;;;;5020587;28;20176;-75
2021/08/15 06:43:10;;;;;;;1.43;1.17;;;21.50;99.90;;;;;;5021279;28;20202;-73
2021/08/15 06:45:37;;;;;;;2.60;1.47;;;21.50;99.90;;;;;;5017155;28;20179;-72
2021/08/15 06:48:04;;;;;;;0.80;0.60;;;21.60;99.90;;;;;;5017194;28;20442;-75
2021/08/15 06:50:29;;;;;;;2.30;1.07;;;21.70;99.90;;;;;;5027890;28;20426;-74
2021/08/15 06:52:55;;;;;;;1.67;0.80;;;21.90;99.90;;;;;;5032427;28;20466;-75
2021/08/15 06:55:21;;;;;;;2.57;1.37;;;22.10;99.90;;;;;;5027770;28;20176;-75
2021/08/15 06:57:47;;;;;;;0.90;0.60;;;22.40;99.90;;;;;;5038255;28;20176;-73
2021/08/15 07:00:14;;;;;;;0.90;0.70;;;22.60;99.90;;;;;;5031405;28;20184;-75
2021/08/15 07:02:43;;;;;;;0.80;0.60;;;22.90;99.90;;;;;;5033726;28;20180;-75
2021/08/15 07:05:10;;;;;;;0.80;0.63;;;22.90;99.90;;;;;;5020187;28;20505;-76
2021/08/15 07:07:36;;;;;;;4.70;0.73;;;23.20;99.90;;;;;;5024443;28;20469;-76
2021/08/15 07:10:04;;;;;;;0.80;0.67;;;23.00;99.90;;;;;;5024787;28;20426;-76
2021/08/15 07:12:29;;;;;;;2.53;2.43;;;23.10;99.90;;;;;;5015293;28;20458;-75
2021/08/15 07:14:55;;;;;;;0.80;0.60;;;22.90;99.90;;;;;;5015958;28;20766;-74
2021/08/15 07:17:20;;;;;;;3.33;0.93;;;22.90;99.90;;;;;;5034327;28;20789;-76
2021/08/15 07:19:46;;;;;;;0.80;0.70;;;22.90;99.90;;;;;;5024112;28;20194;-73
2021/08/15 07:22:12;;;;;;;2.20;0.80;;;23.00;99.90;;;;;;5031533;28;20211;-72
2021/08/15 07:24:37;;;;;;;1.53;1.43;;;23.40;99.90;;;;;;5020052;28;20187;-72
2021/08/15 07:27:03;;;;;;;1.57;1.47;;;23.50;99.90;;;;;;5018297;28;20581;-76
2021/08/15 07:29:28;;;;;;;1.20;0.87;;;23.70;99.90;;;;;;5001231;28;20211;-74
2021/08/15 07:31:54;;;;;;;0.80;0.70;;;23.80;99.90;;;;;;5032370;28;20227;-74
2021/08/15 07:34:20;;;;;;;0.90;0.70;;;23.70;99.90;;;;;;5016980;28;20171;-72
2021/08/15 07:36:46;;;;;;;3.17;1.53;;;24.00;99.90;;;;;;5029482;28;20207;-73
2021/08/15 07:39:12;;;;;;;0.90;0.80;;;24.10;99.90;;;;;;5030941;28;20183;-74
2021/08/15 07:41:37;;;;;;;1.10;1.00;;;24.30;99.90;;;;;;5028367;28;20172;-72
2021/08/15 07:44:03;;;;;;;2.50;1.67;;;24.50;99.90;;;;;;5003357;28;20501;-74
2021/08/15 07:46:29;;;;;;;1.47;1.37;;;24.90;99.90;;;;;;5018118;28;20204;-72
2021/08/15 07:48:56;;;;;;;0.80;0.50;;;25.20;99.90;;;;;;5023536;28;20427;-74
2021/08/15 07:51:22;;;;;;;0.80;0.60;;;25.20;99.90;;;;;;5009256;28;20278;-74
2021/08/15 07:53:48;;;;;;;1.20;0.80;;;25.20;99.90;;;;;;5011217;28;20493;-74
2021/08/15 07:56:13;;;;;;;2.87;1.27;;;25.60;99.90;;;;;;5015021;28;20215;-74
2021/08/15 07:58:39;;;;;;;0.90;0.80;;;26.00;99.90;;;;;;5014985;28;20200;-74
2021/08/15 08:01:04;;;;;;;1.00;0.90;;;26.10;99.90;;;;;;5014044;28;20168;-73
2021/08/15 08:03:30;;;;;;;1.10;0.93;;;26.50;99.90;;;;;;5022365;28;20184;-74
2021/08/15 08:05:55;;;;;;;1.50;0.70;;;26.70;99.90;;;;;;5029489;28;20258;-74
2021/08/15 08:08:21;;;;;;;0.90;0.80;;;26.90;99.90;;;;;;5002807;28;20180;-74
2021/08/15 08:10:53;;;;;;;1.00;0.77;;;27.10;99.90;;;;;;5014801;28;20192;-75
2021/08/15 08:13:20;;;;;;;0.80;0.70;;;27.00;99.90;;;;;;5018210;28;20731;-75
2021/08/15 08:15:45;;;;;;;0.80;0.70;;;27.20;99.90;;;;;;5014297;28;20513;-74
2021/08/15 08:18:11;;;;;;;1.30;0.67;;;27.30;99.90;;;;;;5027497;28;20461;-74
2021/08/15 08:20:38;;;;;;;1.33;0.80;;;27.50;99.90;;;;;;5033832;28;20175;-72
2021/08/15 08:23:05;;;;;;;1.53;1.00;;;27.70;99.90;;;;;;5028908;28;20223;-71
2021/08/15 08:25:31;;;;;;;1.10;1.00;;;28.00;99.90;;;;;;5014429;28;20445;-71
2021/08/15 08:27:57;;;;;;;1.33;1.20;;;28.30;99.90;;;;;;5023823;28;20430;-71
2021/08/15 08:30:22;;;;;;;1.93;0.80;;;28.50;99.90;;;;;;5018591;28;20188;-75
2021/08/15 08:32:48;;;;;;;0.90;0.70;;;28.70;99.90;;;;;;5031018;28;20646;-74
2021/08/15 08:35:13;;;;;;;1.97;1.10;;;28.80;99.90;;;;;;5015025;28;20171;-72
2021/08/15 08:37:39;;;;;;;1.10;0.73;;;29.00;99.90;;;;;;5025178;28;20279;-73
2021/08/15 08:40:05;;;;;;;1.00;0.60;;;29.00;99.90;;;;;;5014345;28;20214;-71
2021/08/15 08:42:31;;;;;;;11.80;2.90;;;29.00;99.90;;;;;;5025783;28;20184;-74
2021/08/15 08:45:02;;;;;;;0.90;0.80;;;28.90;99.90;;;;;;5003179;28;20435;-75
2021/08/15 08:47:29;;;;;;;1.30;0.70;;;29.10;99.90;;;;;;5014213;28;20863;-71
2021/08/15 08:49:56;;;;;;;1.07;0.97;;;29.20;99.90;;;;;;5015979;28;20431;-70
2021/08/15 08:52:31;;;;;;;0.90;0.70;;;29.00;99.90;;;;;;5021211;28;20969;-71
2021/08/15 08:54:58;;;;;;;1.00;0.90;;;29.40;99.90;;;;;;5016758;28;20494;-70
2021/08/15 08:57:24;;;;;;;1.13;1.03;;;29.70;99.90;;;;;;5006951;28;20844;-71
2021/08/15 08:59:50;;;;;;;1.20;1.10;;;29.90;99.90;;;;;;5022118;28;20425;-71
2021/08/15 09:02:16;;;;;;;1.53;0.97;;;30.30;99.90;;;;;;5026488;28;20415;-73
2021/08/15 09:04:42;;;;;;;1.37;1.00;;;30.80;99.90;;;;;;5015251;28;20623;-73
2021/08/15 09:07:10;;;;;;;0.90;0.70;;;30.90;99.90;;;;;;5022580;28;20542;-71
2021/08/15 09:09:41;;;;;;;1.73;1.27;;;30.70;99.90;;;;;;5017730;28;20180;-71
2021/08/15 09:12:07;;;;;;;1.73;1.33;;;30.00;99.90;;;;;;5030599;28;20420;-72
2021/08/15 09:14:33;;;;;;;0.90;0.70;;;29.90;99.90;;;;;;5032697;28;20513;-71
2021/08/15 09:17:00;;;;;;;1.00;0.80;;;30.00;99.90;;;;;;5029487;28;20475;-74
2021/08/15 09:19:31;;;;;;;2.60;2.03;;;30.20;99.90;;;;;;5019956;28;20423;-70
2021/08/15 09:22:17;;;;;;;1.00;0.70;;;30.20;99.90;;;;;;5016611;28;20915;-73
2021/08/15 09:24:48;;;;;;;1.10;0.70;;;30.40;99.90;;;;;;5012984;28;20426;-72
2021/08/15 09:27:31;;;;;;;1.27;1.00;;;30.40;99.90;;;;;;5015635;28;20430;-74
2021/08/15 09:30:24;;;;;;;0.93;0.83;;;30.50;99.90;;;;;;5024440;28;20427;-73
2021/08/15 09:33:00;;;;;;;1.10;1.00;;;31.00;99.90;;;;;;5016642;28;20910;-75
2021/08/15 09:35:35;;;;;;;6.00;2.80;;;31.20;99.90;;;;;;5031861;28;20417;-74
2021/08/15 09:38:12;;;;;;;1.20;0.70;;;31.60;99.90;;;;;;5032232;28;20520;-73
2021/08/15 09:40:41;;;;;;;1.23;0.90;;;31.40;99.90;;;;;;5014967;28;20426;-73
2021/08/15 09:43:10;;;;;;;1.20;0.80;;;31.20;99.90;;;;;;5012550;28;20951;-72
2021/08/15 09:45:38;;;;;;;0.83;0.60;;;30.60;99.90;;;;;;5029325;28;20414;-73
2021/08/15 09:48:16;;;;;;;1.10;0.80;;;31.10;99.90;;;;;;5023772;28;20751;-75
2021/08/15 09:50:42;;;;;;;0.90;0.80;;;31.90;99.90;;;;;;5012714;28;20835;-74
2021/08/15 09:53:25;;;;;;;1.10;0.73;;;32.40;99.20;;;;;;5017535;28;20450;-73
2021/08/15 09:55:51;;;;;;;0.90;0.70;;;32.90;91.60;;;;;;5012006;28;20193;-72
2021/08/15 09:58:17;;;;;;;1.13;1.03;;;33.40;92.50;;;;;;5013646;28;20553;-71
2021/08/15 10:00:43;;;;;;;1.67;0.60;;;33.90;87.50;;;;;;5015028;28;20176;-70
2021/08/15 10:03:09;;;;;;;0.93;0.77;;;33.90;82.40;;;;;;5015591;28;20511;-71
2021/08/15 10:05:35;;;;;;;1.30;0.80;;;34.20;91.50;;;;;;5016806;28;20179;-71
2021/08/15 10:08:02;;;;;;;1.30;1.13;;;33.90;80.70;;;;;;5017789;28;20677;-73
2021/08/15 10:10:28;;;;;;;1.00;0.87;;;33.70;79.40;;;;;;5012358;28;20462;-73
2021/08/15 10:12:53;;;;;;;1.83;0.90;;;33.30;82.00;;;;;;5012134;28;20831;-73
2021/08/15 10:15:19;;;;;;;1.20;0.87;;;33.50;90.00;;;;;;5011963;28;20506;-74
2021/08/15 10:17:50;;;;;;;1.00;0.60;;;33.60;84.10;;;;;;5012313;28;20196;-74
2021/08/15 10:20:22;;;;;;;0.97;0.80;;;32.70;74.80;;;;;;5012323;28;20535;-73
2021/08/15 10:22:50;;;;;;;1.50;0.97;;;32.70;80.50;;;;;;4999384;28;20944;-74
2021/08/15 10:25:39;;;;;;;1.40;1.07;;;32.80;85.10;;;;;;5017254;28;20434;-74
2021/08/15 10:28:05;;;;;;;1.00;0.90;;;33.10;84.00;;;;;;5017645;28;20429;-72
2021/08/15 10:30:31;;;;;;;3.73;1.10;;;33.10;79.60;;;;;;5022525;28;20429;-70
2021/08/15 10:32:56;;;;;;;0.90;0.70;;;33.30;86.40;;;;;;5013445;28;20461;-72
2021/08/15 10:35:25;;;;;;;2.60;1.00;;;33.30;83.90;;;;;;5012014;28;20176;-75
2021/08/15 10:37:52;;;;;;;0.93;0.73;;;33.20;81.20;;;;;;5013277;28;20385;-74
2021/08/15 10:40:43;;;;;;;1.33;1.20;;;32.70;80.50;;;;;;5018238;28;20415;-73
2021/08/15 10:43:35;;;;;;;2.50;1.03;;;31.90;76.70;;;;;;5030466;28;20410;-72
2021/08/15 10:46:18;;;;;;;2.10;1.27;;;31.30;82.30;;;;;;5023339;28;20453;-70
2021/08/15 10:48:59;;;;;;;7.50;3.37;;;31.20;84.50;;;;;;5015533;28;20565;-71
2021/08/15 10:51:46;;;;;;;2.37;0.90;;;31.40;85.80;;;;;;5029550;28;20414;-72
2021/08/15 10:54:27;;;;;;;1.13;0.67;;;31.50;80.40;;;;;;5029358;28;20493;-72
2021/08/15 10:56:59;;;;;;;1.10;1.00;;;32.20;85.00;;;;;;5012752;28;20490;-72
2021/08/15 10:59:34;;;;;;;1.00;0.80;;;32.80;88.90;;;;;;5012120;28;20426;-72
2021/08/15 11:02:14;;;;;;;3.53;0.80;;;33.70;87.50;;;;;;5013035;28;20413;-72
2021/08/15 11:04:52;;;;;;;1.47;0.73;;;34.50;80.50;;;;;;5012827;28;20421;-72
2021/08/15 11:07:32;;;;;;;1.30;0.80;;;34.80;77.30;;;;;;5028821;28;20831;-73
2021/08/15 11:09:58;;;;;;;1.33;0.80;;;35.00;71.60;;;;;;5027926;28;20432;-72
2021/08/15 11:12:24;;;;;;;2.37;1.00;;;35.30;72.30;;;;;;5029793;28;20445;-73
2021/08/15 11:15:10;;;;;;;1.47;0.87;;;35.30;65.10;;;;;;5014659;28;20415;-72
2021/08/15 11:17:37;;;;;;;0.90;0.70;;;35.90;68.60;;;;;;5029555;28;20198;-72
2021/08/15 11:20:28;;;;;;;1.43;1.33;;;36.30;71.60;;;;;;5030692;28;20411;-73
2021/08/15 11:23:14;;;;;;;0.90;0.70;;;36.80;68.60;;;;;;5023588;28;20497;-72
2021/08/15 11:25:41;;;;;;;1.30;1.00;;;36.80;66.10;;;;;;5017042;28;20421;-72
2021/08/15 11:28:07;;;;;;;1.20;1.10;;;36.90;65.80;;;;;;5013144;28;20477;-70
2021/08/15 11:30:33;;;;;;;1.83;1.70;;;37.10;60.80;;;;;;5011590;28;20407;-71
2021/08/15 11:33:00;;;;;;;1.10;1.00;;;37.30;59.10;;;;;;5011642;28;20203;-70
2021/08/15 11:35:45;;;;;;;2.87;2.13;;;37.10;58.20;;;;;;5014064;28;20414;-73
2021/08/15 11:38:16;;;;;;;1.13;0.97;;;37.10;63.50;;;;;;5016191;28;20458;-74
2021/08/15 11:40:53;;;;;;;1.50;1.30;;;36.90;60.30;;;;;;5029018;28;20414;-74
2021/08/15 11:43:21;;;;;;;1.20;0.87;;;37.10;61.70;;;;;;5034360;28;20413;-72
2021/08/15 11:45:54;;;;;;;1.60;1.50;;;37.20;61.70;;;;;;5032017;28;20434;-72
2021/08/15 11:48:21;;;;;;;1.10;0.97;;;36.90;59.30;;;;;;5027283;28;20422;-72
2021/08/15 11:50:50;;;;;;;1.57;1.00;;;37.10;56.80;;;;;;5031125;28;20418;-72
2021/08/15 11:53:24;;;;;;;3.17;1.13;;;37.10;61.50;;;;;;5027286;28;20482;-72
2021/08/15 11:55:52;;;;;;;1.57;1.47;;;37.50;59.40;;;;;;5024252;28;20529;-72
2021/08/15 11:58:19;;;;;;;1.50;0.90;;;37.30;59.90;;;;;;5033452;28;20426;-71
2021/08/15 12:00:45;;;;;;;0.97;0.87;;;37.40;60.50;;;;;;5032530;28;20418;-75
2021/08/15 12:03:17;;;;;;;1.90;0.97;;;37.60;59.70;;;;;;5027506;28;20415;-74
2021/08/15 12:05:45;;;;;;;1.27;0.97;;;37.10;58.20;;;;;;5027423;28;20800;-73
2021/08/15 12:08:13;;;;;;;1.17;1.07;;;37.00;61.10;;;;;;5033332;28;20425;-73
2021/08/15 12:10:43;;;;;;;1.10;1.00;;;37.40;64.10;;;;;;5017786;28;20455;-74
2021/08/15 12:13:12;;;;;;;1.50;1.37;;;37.60;61.50;;;;;;5014417;28;20462;-74
2021/08/15 12:15:39;;;;;;;1.50;1.00;;;37.80;62.10;;;;;;5015003;28;20507;-74
2021/08/15 12:18:04;;;;;;;1.03;0.93;;;37.60;58.10;;;;;;5023576;28;20430;-73
2021/08/15 12:20:30;;;;;;;3.77;1.17;;;37.60;57.70;;;;;;5010449;28;20414;-73
2021/08/15 12:23:06;;;;;;;0.90;0.80;;;37.90;60.50;;;;;;5023174;28;20191;-74
2021/08/15 12:25:31;;;;;;;0.93;0.83;;;38.00;58.90;;;;;;5033400;28;20664;-73
2021/08/15 12:28:12;;;;;;;2.30;2.10;;;38.00;58.50;;;;;;5016158;28;20517;-73
2021/08/15 12:30:38;;;;;;;1.00;0.83;;;37.30;56.60;;;;;;5033982;28;20199;-74
2021/08/15 12:33:23;;;;;;;1.17;1.07;;;37.30;57.10;;;;;;5032119;28;20465;-72
2021/08/15 12:35:49;;;;;;;1.53;1.13;;;36.90;53.20;;;;;;5026541;28;20449;-71
2021/08/15 12:38:28;;;;;;;2.07;1.30;;;36.90;53.80;;;;;;5013925;28;20402;-70
2021/08/15 12:40:54;;;;;;;1.20;0.90;;;36.80;56.20;;;;;;5024514;28;20171;-73
2021/08/15 12:43:24;;;;;;;1.83;1.03;;;36.70;58.70;;;;;;5033562;28;20414;-73
2021/08/15 12:45:49;;;;;;;1.00;0.90;;;36.60;54.10;;;;;;5033329;28;20187;-74
2021/08/15 12:48:17;;;;;;;1.10;0.90;;;36.30;55.60;;;;;;5022649;28;20478;-72